createdAt,value
2023-04-13T00:02:20.606Z,4.92
2023-04-13T00:04:50.916Z,4.94
2023-04-13T00:07:19.055Z,4.99
2023-04-13T00:09:47.589Z,4.99
2023-04-13T00:12:15.956Z,4.95
2023-04-13T00:14:44.189Z,4.92
2023-04-13T00:17:11.247Z,4.89
2023-04-13T00:19:37.937Z,4.87
2023-04-13T00:22:04.723Z,4.77
2023-04-13T00:24:31.489Z,4.71
2023-04-13T00:26:58.086Z,4.71
2023-04-13T00:29:24.855Z,4.73
2023-04-13T00:31:51.707Z,4.75
2023-04-13T00:34:18.348Z,4.72
2023-04-13T00:36:44.922Z,4.68
2023-04-13T00:39:11.669Z,4.72
2023-04-13T00:41:38.250Z,4.78
2023-04-13T00:44:04.921Z,4.98
2023-04-13T00:46:31.782Z,5.01
2023-04-13T00:49:02.009Z,5.11
2023-04-13T00:51:30.486Z,5.15
2023-04-13T00:53:59.528Z,5.14
2023-04-13T00:56:27.380Z,5.28
2023-04-13T00:58:56.574Z,5.30
2023-04-13T01:01:23.476Z,5.34
2023-04-13T01:03:53.733Z,5.47
2023-04-13T01:06:32.069Z,5.64
2023-04-13T01:09:21.716Z,5.72
2023-04-13T01:12:06.430Z,5.79
2023-04-13T01:14:40.721Z,5.74
2023-04-13T01:17:15.503Z,5.87
2023-04-13T01:19:58.346Z,5.84
2023-04-13T01:22:29.174Z,5.90
2023-04-13T01:25:02.314Z,6.04
2023-04-13T01:27:43.317Z,6.04
2023-04-13T01:30:11.471Z,6.06
2023-04-13T01:32:39.354Z,5.89
2023-04-13T01:35:10.845Z,5.96
2023-04-13T01:37:38.756Z,5.95
2023-04-13T01:40:12.870Z,5.90
2023-04-13T01:42:41.035Z,5.89
2023-04-13T01:45:13.014Z,5.78
2023-04-13T01:47:45.610Z,5.79
2023-04-13T01:50:34.967Z,5.70
2023-04-13T01:53:11.417Z,5.63
2023-04-13T01:55:44.141Z,5.61
2023-04-13T01:58:13.251Z,5.57
2023-04-13T02:00:41.510Z,5.67
2023-04-13T02:03:10.034Z,5.67
2023-04-13T02:05:42.709Z,5.56
2023-04-13T02:08:09.510Z,5.58
2023-04-13T02:10:37.598Z,5.55
2023-04-13T02:13:04.661Z,5.49
2023-04-13T02:15:35.169Z,5.39
2023-04-13T02:18:02.037Z,5.35
2023-04-13T02:20:33.259Z,5.44
2023-04-13T02:23:00.825Z,5.53
2023-04-13T02:25:28.304Z,5.53
2023-04-13T02:27:54.945Z,5.50
2023-04-13T02:30:21.682Z,5.47
2023-04-13T02:32:50.970Z,5.41
2023-04-13T02:35:17.790Z,5.47
2023-04-13T02:37:44.558Z,5.43
2023-04-13T02:40:11.949Z,5.26
2023-04-13T02:42:39.326Z,5.23
2023-04-13T02:45:08.025Z,5.32
2023-04-13T02:47:35.212Z,5.19
2023-04-13T02:50:02.298Z,5.15
2023-04-13T02:52:29.199Z,5.15
2023-04-13T02:54:55.931Z,5.22
2023-04-13T02:57:22.707Z,5.30
2023-04-13T02:59:50.550Z,5.32
2023-04-13T03:02:18.282Z,5.28
2023-04-13T03:04:45.662Z,5.24
2023-04-13T03:07:14.728Z,5.24
2023-04-13T03:09:41.631Z,5.22
2023-04-13T03:12:08.371Z,5.24
2023-04-13T03:14:36.819Z,5.21
2023-04-13T03:17:04.704Z,5.18
2023-04-13T03:19:32.117Z,5.17
2023-04-13T03:21:58.964Z,5.15
2023-04-13T03:24:27.583Z,5.26
2023-04-13T03:26:57.142Z,5.44
2023-04-13T03:29:24.707Z,5.40
2023-04-13T03:31:51.646Z,5.31
2023-04-13T03:34:19.204Z,5.44
2023-04-13T03:36:46.118Z,5.41
2023-04-13T03:39:15.734Z,5.23
2023-04-13T03:41:42.369Z,5.14
2023-04-13T03:44:09.628Z,5.18
2023-04-13T03:46:39.166Z,5.14
2023-04-13T03:49:08.793Z,5.05
2023-04-13T03:51:38.630Z,5.06
2023-04-13T03:54:05.298Z,4.95
2023-04-13T03:56:33.503Z,5.04
2023-04-13T03:59:00.182Z,5.11
2023-04-13T04:01:27.472Z,5.24
2023-04-13T04:03:57.285Z,5.23
2023-04-13T04:06:25.070Z,5.07
2023-04-13T04:08:51.731Z,5.02
2023-04-13T04:11:18.565Z,5.01
2023-04-13T04:13:45.424Z,5.06
2023-04-13T04:16:12.341Z,4.81
2023-04-13T04:18:39.502Z,4.90
2023-04-13T04:21:07.068Z,4.86
2023-04-13T04:23:34.848Z,5.07
2023-04-13T04:26:03.127Z,5.18
2023-04-13T04:28:38.931Z,5.27
2023-04-13T04:31:10.886Z,5.44
2023-04-13T04:33:41.207Z,5.44
2023-04-13T04:36:10.274Z,5.49
2023-04-13T04:38:37.105Z,5.57
2023-04-13T04:41:03.901Z,5.54
2023-04-13T04:43:30.695Z,5.50
2023-04-13T04:46:03.346Z,5.48
2023-04-13T04:48:31.933Z,5.41
2023-04-13T04:50:58.766Z,5.28
2023-04-13T04:53:26.345Z,5.28
2023-04-13T04:55:52.988Z,5.44
2023-04-13T04:58:19.926Z,5.54
2023-04-13T05:00:48.203Z,5.52
2023-04-13T05:03:15.164Z,5.61
2023-04-13T05:05:43.231Z,5.71
2023-04-13T05:08:11.896Z,5.75
2023-04-13T05:10:44.192Z,5.82
2023-04-13T05:13:10.946Z,5.87
2023-04-13T05:15:37.714Z,5.95
2023-04-13T05:18:06.438Z,5.84
2023-04-13T05:20:34.861Z,5.88
2023-04-13T05:23:01.867Z,5.95
2023-04-13T05:25:29.041Z,6.01
2023-04-13T05:27:56.364Z,6.17
2023-04-13T05:30:23.183Z,6.19
2023-04-13T05:32:49.894Z,6.27
2023-04-13T05:35:16.729Z,6.25
2023-04-13T05:37:44.833Z,6.31
2023-04-13T05:40:15.404Z,6.27
2023-04-13T05:42:43.664Z,6.47
2023-04-13T05:45:10.832Z,6.41
2023-04-13T05:47:39.145Z,6.32
2023-04-13T05:50:06.889Z,6.47
2023-04-13T05:52:33.511Z,6.46
2023-04-13T05:55:00.057Z,6.43
2023-04-13T05:57:27.360Z,6.42
2023-04-13T05:59:55.159Z,6.40
2023-04-13T06:02:22.783Z,6.44
2023-04-13T06:04:52.674Z,6.41
2023-04-13T06:07:20.132Z,6.54
2023-04-13T06:09:46.740Z,6.53
2023-04-13T06:12:13.792Z,6.67
2023-04-13T06:14:41.642Z,6.79
2023-04-13T06:17:08.578Z,6.87
2023-04-13T06:19:35.464Z,6.91
2023-04-13T06:22:02.428Z,6.92
2023-04-13T06:24:29.202Z,6.95
2023-04-13T06:26:56.697Z,6.98
2023-04-13T06:29:23.525Z,7.19
2023-04-13T06:31:50.258Z,7.32
2023-04-13T06:34:17.000Z,7.54
2023-04-13T06:36:43.952Z,7.69
2023-04-13T06:39:10.851Z,7.87
2023-04-13T06:41:37.959Z,7.96
2023-04-13T06:44:05.316Z,8.08
2023-04-13T06:46:32.138Z,7.86
2023-04-13T06:48:59.125Z,7.89
2023-04-13T06:51:27.130Z,7.84
2023-04-13T06:53:54.904Z,8.01
2023-04-13T06:56:21.613Z,8.18
2023-04-13T06:58:48.387Z,8.31
2023-04-13T07:01:16.437Z,8.38
2023-04-13T07:03:44.181Z,8.25
2023-04-13T07:06:11.868Z,8.27
2023-04-13T07:08:38.590Z,8.22
2023-04-13T07:11:05.615Z,8.29
2023-04-13T07:13:32.321Z,8.35
2023-04-13T07:15:59.047Z,8.45
2023-04-13T07:18:25.832Z,8.59
2023-04-13T07:20:52.764Z,8.56
2023-04-13T07:23:19.548Z,8.62
2023-04-13T07:25:46.206Z,8.63
2023-04-13T07:28:12.793Z,8.91
2023-04-13T07:30:44.057Z,9.52
2023-04-13T07:33:11.232Z,10.09
2023-04-13T07:35:38.566Z,10.80
2023-04-13T07:38:06.484Z,11.20
2023-04-13T07:40:33.245Z,11.18
2023-04-13T07:42:59.845Z,10.32
2023-04-13T07:45:29.943Z,10.58
2023-04-13T07:47:57.245Z,10.46
2023-04-13T07:50:24.103Z,10.27
2023-04-13T07:52:51.692Z,10.52
2023-04-13T07:55:18.563Z,11.10
2023-04-13T07:57:45.131Z,11.42
2023-04-13T08:00:13.997Z,11.04
2023-04-13T08:02:41.904Z,10.74
2023-04-13T08:05:09.712Z,11.04
2023-04-13T08:07:36.499Z,11.18
2023-04-13T08:10:04.380Z,11.32
2023-04-13T08:12:31.490Z,11.42
2023-04-13T08:14:58.123Z,11.63
2023-04-13T08:17:24.934Z,11.69
2023-04-13T08:19:51.588Z,11.29
2023-04-13T08:22:18.853Z,11.52
2023-04-13T08:24:46.061Z,11.83
2023-04-13T08:27:12.789Z,11.84
2023-04-13T08:29:39.414Z,11.65
2023-04-13T08:32:06.370Z,11.55
2023-04-13T08:34:33.090Z,11.52
2023-04-13T08:36:59.703Z,11.20
2023-04-13T08:39:26.562Z,11.00
2023-04-13T08:41:53.312Z,10.59
2023-04-13T08:44:20.129Z,10.76
2023-04-13T08:46:47.193Z,10.59
2023-04-13T08:49:14.179Z,11.15
2023-04-13T08:51:43.685Z,11.45
2023-04-13T08:54:13.040Z,12.01
2023-04-13T08:56:46.561Z,12.21
2023-04-13T08:59:15.754Z,11.40
2023-04-13T09:01:45.588Z,10.83
2023-04-13T09:04:14.631Z,10.70
2023-04-13T09:06:43.238Z,10.30
2023-04-13T09:09:14.633Z,10.59
2023-04-13T09:11:43.349Z,10.71
2023-04-13T09:14:10.729Z,10.92
2023-04-13T09:16:44.553Z,10.89
2023-04-13T09:19:13.043Z,10.75
2023-04-13T09:21:45.019Z,10.69
2023-04-13T09:24:12.752Z,10.51
2023-04-13T09:26:49.825Z,10.93
2023-04-13T09:29:18.665Z,10.98
2023-04-13T09:31:47.048Z,10.79
2023-04-13T09:34:15.687Z,11.38
2023-04-13T09:36:54.013Z,11.57
2023-04-13T09:39:28.826Z,11.33
2023-04-13T09:41:56.690Z,11.01
2023-04-13T09:44:34.934Z,11.17
2023-04-13T09:47:03.617Z,11.22
2023-04-13T09:49:43.615Z,11.68
2023-04-13T09:52:20.754Z,11.45
2023-04-13T09:54:50.850Z,12.02
2023-04-13T09:57:26.437Z,12.40
2023-04-13T09:59:54.254Z,12.01
2023-04-13T10:02:22.227Z,12.04
2023-04-13T10:04:49.568Z,12.27
2023-04-13T10:07:16.453Z,12.04
2023-04-13T10:09:46.157Z,12.28
2023-04-13T10:12:15.835Z,12.61
2023-04-13T10:14:45.929Z,12.84
2023-04-13T10:17:31.151Z,12.85
2023-04-13T10:20:10.992Z,13.41
2023-04-13T10:22:40.929Z,14.13
2023-04-13T10:25:08.052Z,14.53
2023-04-13T10:27:36.771Z,14.71
2023-04-13T10:30:17.632Z,15.21
2023-04-13T10:32:45.070Z,15.38
2023-04-13T10:35:12.842Z,15.56
2023-04-13T10:37:40.841Z,15.93
2023-04-13T10:40:10.436Z,15.54
2023-04-13T10:45:18.030Z,14.66
2023-04-13T10:47:44.928Z,14.99
2023-04-13T10:50:22.920Z,14.81
2023-04-13T10:52:58.645Z,14.11
2023-04-13T10:55:28.201Z,13.97
2023-04-13T10:57:56.675Z,13.51
2023-04-13T11:00:34.772Z,13.75
2023-04-13T11:03:09.675Z,13.17
2023-04-13T11:05:36.569Z,13.11
2023-04-13T11:08:04.900Z,13.18
2023-04-13T11:10:32.693Z,12.91
2023-04-13T11:12:59.529Z,12.90
2023-04-13T11:15:28.808Z,12.69
2023-04-13T11:17:58.239Z,12.73
2023-04-13T11:20:36.321Z,12.86
2023-04-13T11:23:06.578Z,13.38
2023-04-13T11:25:36.563Z,13.88
2023-04-13T11:28:04.464Z,14.72
2023-04-13T11:30:32.663Z,14.81
2023-04-13T11:33:01.429Z,14.95
2023-04-13T11:35:28.212Z,14.59
2023-04-13T11:37:56.237Z,14.32
2023-04-13T11:40:25.819Z,14.59
2023-04-13T11:42:54.420Z,14.65
2023-04-13T11:45:25.514Z,14.61
2023-04-13T11:47:53.360Z,14.82
2023-04-13T11:50:21.669Z,14.36
2023-04-13T11:52:51.609Z,13.98
2023-04-13T11:55:23.686Z,14.03
2023-04-13T11:57:53.055Z,14.22
2023-04-13T12:00:27.168Z,13.57
2023-04-13T12:05:29.288Z,13.24
2023-04-13T12:07:57.526Z,13.40
2023-04-13T12:10:39.335Z,13.03
2023-04-13T12:16:02.309Z,12.94
2023-04-13T12:18:42.540Z,13.00
2023-04-13T12:21:17.114Z,13.08
2023-04-13T12:24:05.990Z,12.91
2023-04-13T12:29:08.805Z,13.15
2023-04-13T12:31:37.131Z,13.29
2023-04-13T12:34:05.525Z,13.31
2023-04-13T12:36:36.303Z,13.59
2023-04-13T12:39:04.795Z,13.88
2023-04-13T12:41:32.418Z,13.76
2023-04-13T12:43:59.479Z,13.67
2023-04-13T12:46:26.824Z,13.81
2023-04-13T12:48:54.204Z,13.47
2023-04-13T12:51:21.030Z,13.17
2023-04-13T12:53:47.895Z,13.19
2023-04-13T12:56:14.674Z,12.97
2023-04-13T12:58:41.625Z,13.29
2023-04-13T13:01:08.857Z,13.34
2023-04-13T13:03:37.369Z,13.48
2023-04-13T13:06:08.407Z,13.65
2023-04-13T13:08:37.549Z,13.98
2023-04-13T13:11:08.507Z,14.00
2023-04-13T13:13:35.211Z,14.25
2023-04-13T13:16:02.210Z,14.26
2023-04-13T13:18:38.908Z,14.08
2023-04-13T13:21:16.124Z,13.66
2023-04-13T13:23:42.848Z,14.09
2023-04-13T13:28:39.267Z,14.29
2023-04-13T13:31:08.261Z,14.32
2023-04-13T13:33:35.147Z,14.20
2023-04-13T13:36:02.722Z,14.56
2023-04-13T13:38:29.601Z,14.39
2023-04-13T13:40:56.453Z,14.22
2023-04-13T13:43:23.301Z,14.37
2023-04-13T13:45:50.060Z,14.44
2023-04-13T13:48:16.905Z,14.13
2023-04-13T13:50:43.977Z,14.36
2023-04-13T13:53:10.705Z,14.48
2023-04-13T13:55:37.581Z,14.78
2023-04-13T13:58:04.389Z,14.92
2023-04-13T14:00:31.403Z,15.09
2023-04-13T14:02:58.310Z,15.11
2023-04-13T14:05:25.120Z,15.03
2023-04-13T14:07:51.908Z,15.02
2023-04-13T14:10:19.079Z,14.65
2023-04-13T14:12:50.227Z,14.54
2023-04-13T14:15:17.303Z,14.20
2023-04-13T14:17:50.145Z,14.09
2023-04-13T14:20:22.640Z,13.76
2023-04-13T14:22:49.499Z,13.77
2023-04-13T14:25:16.393Z,14.07
2023-04-13T14:27:43.140Z,14.41
2023-04-13T14:30:10.447Z,14.30
2023-04-13T14:32:37.141Z,14.16
2023-04-13T14:35:04.777Z,14.15
2023-04-13T14:37:31.634Z,14.02
2023-04-13T14:39:58.457Z,14.07
2023-04-13T14:42:25.456Z,13.63
2023-04-13T14:44:52.508Z,13.95
2023-04-13T14:47:19.857Z,14.03
2023-04-13T14:49:47.608Z,14.28
2023-04-13T14:52:14.849Z,14.15
2023-04-13T14:54:42.323Z,13.82
2023-04-13T14:57:09.657Z,13.50
2023-04-13T14:59:36.303Z,13.45
2023-04-13T15:02:03.159Z,13.44
2023-04-13T15:04:30.175Z,13.41
2023-04-13T15:06:57.074Z,13.43
2023-04-13T15:09:24.163Z,13.39
2023-04-13T15:11:52.218Z,13.37
2023-04-13T15:14:19.409Z,13.57
2023-04-13T15:16:46.473Z,13.62
2023-04-13T15:19:13.360Z,13.61
2023-04-13T15:21:40.082Z,13.58
2023-04-13T15:24:09.092Z,13.24
2023-04-13T15:26:40.869Z,13.36
2023-04-13T15:29:10.767Z,13.21
2023-04-13T15:31:38.981Z,12.93
2023-04-13T15:34:06.685Z,12.49
2023-04-13T15:36:33.501Z,12.27
2023-04-13T15:39:00.855Z,12.02
2023-04-13T15:41:27.871Z,11.89
2023-04-13T15:43:56.053Z,11.65
2023-04-13T15:46:23.073Z,11.56
2023-04-13T15:48:50.649Z,11.42
2023-04-13T15:51:17.655Z,11.84
2023-04-13T15:53:44.371Z,11.60
2023-04-13T15:56:11.203Z,11.57
2023-04-13T15:58:37.892Z,11.74
2023-04-13T16:01:09.382Z,11.63
2023-04-13T16:03:37.022Z,11.48
2023-04-13T16:06:04.195Z,11.36
2023-04-13T16:08:31.563Z,11.44
2023-04-13T16:10:58.441Z,11.27
2023-04-13T16:13:34.772Z,11.07
2023-04-13T16:16:08.007Z,11.17
2023-04-13T16:18:35.979Z,11.04
2023-04-13T16:21:04.050Z,11.19
2023-04-13T16:23:34.078Z,10.92
2023-04-13T16:26:02.243Z,11.02
2023-04-13T16:28:29.914Z,11.12
2023-04-13T16:30:56.796Z,11.21
2023-04-13T16:33:23.649Z,11.18
2023-04-13T16:35:51.522Z,11.14
2023-04-13T16:38:18.282Z,11.14
2023-04-13T16:40:44.994Z,11.09
2023-04-13T16:43:11.662Z,10.96
2023-04-13T16:45:38.424Z,10.93
2023-04-13T16:48:05.571Z,10.95
2023-04-13T16:50:32.755Z,10.88
2023-04-13T16:52:59.792Z,10.89
2023-04-13T16:55:28.772Z,10.95
2023-04-13T16:57:56.000Z,10.75
2023-04-13T17:00:23.376Z,10.73
2023-04-13T17:02:50.499Z,10.68
2023-04-13T17:05:17.371Z,10.53
2023-04-13T17:07:46.990Z,10.46
2023-04-13T17:10:14.512Z,10.45
2023-04-13T17:12:41.596Z,10.43
2023-04-13T17:15:09.687Z,10.37
2023-04-13T17:17:38.532Z,10.53
2023-04-13T17:20:06.919Z,10.50
2023-04-13T17:22:33.556Z,10.46
2023-04-13T17:25:01.072Z,10.31
2023-04-13T17:27:27.906Z,10.33
2023-04-13T17:29:54.608Z,10.10
2023-04-13T17:32:22.297Z,10.14
2023-04-13T17:34:50.119Z,10.08
2023-04-13T17:37:17.980Z,10.09
2023-04-13T17:39:47.857Z,10.11
2023-04-13T17:42:14.824Z,10.08
2023-04-13T17:44:41.640Z,10.02
2023-04-13T17:47:08.458Z,9.89
2023-04-13T17:49:35.226Z,9.81
2023-04-13T17:52:01.856Z,9.92
2023-04-13T17:54:28.613Z,9.79
2023-04-13T17:56:56.184Z,9.80
2023-04-13T17:59:23.425Z,9.71
2023-04-13T18:01:54.060Z,9.71
2023-04-13T18:04:21.255Z,9.65
2023-04-13T18:06:49.061Z,9.63
2023-04-13T18:09:15.763Z,9.52
2023-04-13T18:11:42.412Z,9.43
2023-04-13T18:14:12.396Z,9.46
2023-04-13T18:16:39.645Z,9.36
2023-04-13T18:19:06.507Z,9.26
2023-04-13T18:21:33.689Z,9.30
2023-04-13T18:24:02.128Z,9.30
2023-04-13T18:26:29.295Z,9.34
2023-04-13T18:28:55.928Z,9.34
2023-04-13T18:31:22.778Z,9.28
2023-04-13T18:33:49.538Z,9.31
2023-04-13T18:36:17.499Z,9.16
2023-04-13T18:38:45.090Z,9.16
2023-04-13T18:41:12.382Z,9.15
2023-04-13T18:43:39.760Z,9.13
2023-04-13T18:46:07.931Z,9.16
2023-04-13T18:48:35.430Z,9.19
2023-04-13T18:51:03.790Z,9.11
2023-04-13T18:53:31.285Z,9.16
2023-04-13T18:55:58.857Z,9.25
2023-04-13T18:58:26.523Z,9.25
2023-04-13T19:00:53.276Z,9.21
2023-04-13T19:03:20.068Z,9.10
2023-04-13T19:05:47.249Z,9.08
2023-04-13T19:08:14.040Z,9.10
2023-04-13T19:10:42.214Z,9.06
2023-04-13T19:13:09.077Z,9.10
2023-04-13T19:15:36.174Z,9.02
2023-04-13T19:18:04.561Z,9.02
2023-04-13T19:20:31.467Z,8.92
2023-04-13T19:22:58.227Z,8.95
2023-04-13T19:25:24.881Z,8.95
2023-04-13T19:27:51.588Z,8.97
2023-04-13T19:30:19.709Z,8.83
2023-04-13T19:32:48.205Z,8.75
2023-04-13T19:35:15.290Z,8.69
2023-04-13T19:37:42.369Z,8.59
2023-04-13T19:40:10.312Z,8.66
2023-04-13T19:42:37.430Z,8.63
2023-04-13T19:45:04.550Z,8.54
2023-04-13T19:47:31.435Z,8.51
2023-04-13T19:49:58.242Z,8.51
2023-04-13T19:52:25.353Z,8.54
2023-04-13T19:54:52.183Z,8.58
2023-04-13T19:57:19.073Z,8.53
2023-04-13T19:59:45.760Z,8.56
2023-04-13T20:02:12.747Z,8.51
2023-04-13T20:04:40.573Z,8.43
2023-04-13T20:07:07.952Z,8.29
2023-04-13T20:09:34.739Z,8.17
2023-04-13T20:12:01.715Z,8.10
2023-04-13T20:14:28.519Z,8.07
2023-04-13T20:16:55.311Z,8.07
2023-04-13T20:19:23.828Z,7.96
2023-04-13T20:21:51.372Z,8.02
2023-04-13T20:24:18.770Z,7.99
2023-04-13T20:26:45.788Z,8.01
2023-04-13T20:29:12.774Z,7.98
2023-04-13T20:31:41.007Z,8.05
2023-04-13T20:34:09.793Z,7.95
2023-04-13T20:36:36.429Z,7.92
2023-04-13T20:39:03.659Z,7.93
2023-04-13T20:41:32.476Z,7.88
2023-04-13T20:44:00.335Z,7.89
2023-04-13T20:46:34.756Z,7.87
2023-04-13T20:49:02.808Z,7.85
2023-04-13T20:51:33.523Z,7.78
2023-04-13T20:54:03.084Z,7.75
2023-04-13T20:56:30.016Z,7.71
2023-04-13T20:58:58.186Z,7.66
2023-04-13T21:01:25.638Z,7.67
2023-04-13T21:03:53.141Z,7.66
2023-04-13T21:06:20.104Z,7.66
2023-04-13T21:08:46.696Z,7.62
2023-04-13T21:11:13.596Z,7.62
2023-04-13T21:13:40.410Z,7.65
2023-04-13T21:16:09.169Z,7.61
2023-04-13T21:18:36.874Z,7.63
2023-04-13T21:21:06.334Z,7.67
2023-04-13T21:23:33.127Z,7.65
2023-04-13T21:25:59.761Z,7.64
2023-04-13T21:28:26.390Z,7.56
2023-04-13T21:30:53.094Z,7.48
2023-04-13T21:33:19.961Z,7.45
2023-04-13T21:35:46.602Z,7.35
2023-04-13T21:38:13.182Z,7.32
2023-04-13T21:40:40.135Z,7.29
2023-04-13T21:43:06.947Z,7.20
2023-04-13T21:45:33.646Z,7.16
2023-04-13T21:48:00.370Z,7.15
2023-04-13T21:50:26.981Z,7.11
2023-04-13T21:52:53.595Z,7.09
2023-04-13T21:55:20.529Z,7.02
2023-04-13T21:57:47.675Z,7.03
2023-04-13T22:00:16.135Z,6.91
2023-04-13T22:02:42.851Z,6.77
2023-04-13T22:05:11.176Z,6.73
2023-04-13T22:07:42.947Z,6.67
2023-04-13T22:10:11.138Z,6.63
2023-04-13T22:12:37.974Z,6.62
2023-04-13T22:15:05.100Z,6.59
2023-04-13T22:17:32.153Z,6.53
2023-04-13T22:19:58.823Z,6.47
2023-04-13T22:22:25.604Z,6.44
2023-04-13T22:24:53.420Z,6.40
2023-04-13T22:27:20.092Z,6.34
2023-04-13T22:29:47.638Z,6.28
2023-04-13T22:32:14.843Z,6.19
2023-04-13T22:34:41.519Z,6.19
2023-04-13T22:37:10.563Z,6.03
2023-04-13T22:39:37.217Z,5.94
2023-04-13T22:42:04.234Z,5.79
2023-04-13T22:44:34.640Z,5.66
2023-04-13T22:47:02.430Z,5.53
2023-04-13T22:49:30.051Z,5.44
2023-04-13T22:51:57.252Z,5.43
2023-04-13T22:54:24.063Z,5.45
2023-04-13T22:56:50.768Z,5.45
2023-04-13T22:59:17.402Z,5.45
2023-04-13T23:01:44.234Z,5.49
2023-04-13T23:04:14.134Z,5.45
2023-04-13T23:06:42.492Z,5.40
2023-04-13T23:09:09.352Z,5.39
2023-04-13T23:11:36.056Z,5.37
2023-04-13T23:14:02.773Z,5.43
2023-04-13T23:16:29.824Z,5.41
2023-04-13T23:18:56.933Z,5.41
2023-04-13T23:21:23.714Z,5.41
2023-04-13T23:23:50.761Z,5.36
2023-04-13T23:26:17.461Z,5.32
2023-04-13T23:28:44.239Z,5.28
2023-04-13T23:31:11.041Z,5.24
2023-04-13T23:33:38.005Z,5.20
2023-04-13T23:36:05.816Z,5.13
2023-04-13T23:38:32.906Z,5.13
2023-04-13T23:40:59.856Z,5.15
2023-04-13T23:43:26.933Z,5.18
2023-04-13T23:45:53.956Z,5.15
2023-04-13T23:48:22.542Z,5.03
2023-04-13T23:50:49.688Z,4.97
2023-04-13T23:53:16.709Z,4.94
2023-04-13T23:55:43.328Z,4.88
2023-04-13T23:58:09.913Z,4.88
